createdAt,value
2023-05-12T00:00:41.524Z,1480.00
2023-05-12T00:01:41.476Z,1481.00
2023-05-12T00:02:41.503Z,1482.00
2023-05-12T00:03:41.587Z,1481.00
2023-05-12T00:04:41.448Z,1481.00
2023-05-12T00:05:41.381Z,1484.00
2023-05-12T00:06:41.356Z,1484.00
2023-05-12T00:07:41.386Z,1481.00
2023-05-12T00:08:41.310Z,1477.00
2023-05-12T00:09:41.292Z,1475.00
2023-05-12T00:10:41.274Z,1472.00
2023-05-12T00:11:41.247Z,1466.00
2023-05-12T00:12:41.251Z,1465.00
2023-05-12T00:13:41.219Z,1464.00
2023-05-12T00:14:41.195Z,1460.00
2023-05-12T00:15:41.179Z,1460.00
2023-05-12T00:16:41.183Z,1460.00
2023-05-12T00:17:41.181Z,1457.00
2023-05-12T00:18:41.315Z,1457.00
2023-05-12T00:19:41.089Z,1456.00
2023-05-12T00:20:41.065Z,1455.00
2023-05-12T00:21:41.039Z,1457.00
2023-05-12T00:22:41.007Z,1456.00
2023-05-12T00:23:40.984Z,1455.00
2023-05-12T00:24:40.962Z,1450.00
2023-05-12T00:25:41.001Z,1446.00
2023-05-12T00:26:40.911Z,1446.00
2023-05-12T00:27:40.876Z,1443.00
2023-05-12T00:28:40.846Z,1441.00
2023-05-12T00:29:40.851Z,1442.00
2023-05-12T00:30:40.809Z,1439.00
2023-05-12T00:31:41.662Z,1440.00
2023-05-12T00:32:40.788Z,1442.00
2023-05-12T00:33:40.749Z,1443.00
2023-05-12T00:34:40.729Z,1447.00
2023-05-12T00:35:40.713Z,1451.00
2023-05-12T00:36:40.772Z,1447.00
2023-05-12T00:37:40.670Z,1439.00
2023-05-12T00:38:40.641Z,1439.00
2023-05-12T00:39:40.646Z,1440.00
2023-05-12T00:40:40.608Z,1438.00
2023-05-12T00:41:40.661Z,1438.00
2023-05-12T00:42:40.557Z,1435.00
2023-05-12T00:43:40.548Z,1432.00
2023-05-12T00:44:40.573Z,1432.00
2023-05-12T00:45:40.505Z,1435.00
2023-05-12T00:46:40.470Z,1436.00
2023-05-12T00:47:40.548Z,1435.00
2023-05-12T00:48:40.435Z,1436.00
2023-05-12T00:49:40.419Z,1433.00
2023-05-12T00:50:40.399Z,1429.00
2023-05-12T00:51:40.373Z,1427.00
2023-05-12T00:52:40.353Z,1429.00
2023-05-12T00:53:49.195Z,1432.00
2023-05-12T00:54:41.320Z,1431.00
2023-05-12T00:55:40.313Z,1433.00
2023-05-12T00:56:40.284Z,1432.00
2023-05-12T00:57:40.267Z,1435.00
2023-05-12T00:58:40.245Z,1434.00
2023-05-12T00:59:40.219Z,1436.00
2023-05-12T01:00:40.208Z,1440.00
2023-05-12T01:01:40.284Z,1439.00
2023-05-12T01:02:40.227Z,1439.00
2023-05-12T01:03:40.248Z,1444.00
2023-05-12T01:04:40.165Z,1442.00
2023-05-12T01:05:40.124Z,1440.00
2023-05-12T01:06:40.087Z,1441.00
2023-05-12T01:07:40.079Z,1439.00
2023-05-12T01:08:40.060Z,1439.00
2023-05-12T01:09:40.045Z,1438.00
2023-05-12T01:10:40.036Z,1436.00
2023-05-12T01:11:40.025Z,1435.00
2023-05-12T01:12:39.997Z,1433.00
2023-05-12T01:13:39.997Z,1431.00
2023-05-12T01:14:39.973Z,1432.00
2023-05-12T01:15:39.960Z,1429.00
2023-05-12T01:16:40.024Z,1427.00
2023-05-12T01:17:40.108Z,1427.00
2023-05-12T01:18:39.928Z,1430.00
2023-05-12T01:19:39.880Z,1432.00
2023-05-12T01:20:39.875Z,1432.00
2023-05-12T01:21:39.843Z,1428.00
2023-05-12T01:22:39.823Z,1425.00
2023-05-12T01:23:39.828Z,1424.00
2023-05-12T01:24:39.793Z,1424.00
2023-05-12T01:25:39.783Z,1424.00
2023-05-12T01:26:39.761Z,1424.00
2023-05-12T01:27:39.826Z,1424.00
2023-05-12T01:28:39.721Z,1418.00
2023-05-12T01:29:39.709Z,1419.00
2023-05-12T01:30:39.686Z,1422.00
2023-05-12T01:31:39.717Z,1418.00
2023-05-12T01:32:39.723Z,1417.00
2023-05-12T01:33:39.642Z,1415.00
2023-05-12T01:34:39.661Z,1411.00
2023-05-12T01:35:39.610Z,1408.00
2023-05-12T01:36:39.598Z,1410.00
2023-05-12T01:37:39.583Z,1410.00
2023-05-12T01:38:39.599Z,1409.00
2023-05-12T01:39:39.565Z,1414.00
2023-05-12T01:40:39.620Z,1417.00
2023-05-12T01:41:39.553Z,1416.00
2023-05-12T01:42:39.544Z,1419.00
2023-05-12T01:43:40.066Z,1422.00
2023-05-12T01:44:39.536Z,1422.00
2023-05-12T01:45:39.514Z,1420.00
2023-05-12T01:46:39.534Z,1417.00
2023-05-12T01:47:39.546Z,1417.00
2023-05-12T01:48:39.505Z,1416.00
2023-05-12T01:49:39.521Z,1416.00
2023-05-12T01:50:39.503Z,1413.00
2023-05-12T01:51:39.507Z,1408.00
2023-05-12T01:52:39.488Z,1404.00
2023-05-12T01:53:39.487Z,1406.00
2023-05-12T01:54:39.480Z,1404.00
2023-05-12T01:55:39.485Z,1400.00
2023-05-12T01:56:39.491Z,1400.00
2023-05-12T01:57:39.481Z,1399.00
2023-05-12T01:58:39.511Z,1399.00
2023-05-12T01:59:39.476Z,1401.00
2023-05-12T02:00:39.478Z,1401.00
2023-05-12T02:01:39.502Z,1397.00
2023-05-12T02:02:40.895Z,1400.00
2023-05-12T02:03:39.598Z,1400.00
2023-05-12T02:04:39.417Z,1400.00
2023-05-12T02:05:39.400Z,1400.00
2023-05-12T02:06:39.382Z,1398.00
2023-05-12T02:07:39.362Z,1400.00
2023-05-12T02:08:39.340Z,1399.00
2023-05-12T02:09:40.089Z,1396.00
2023-05-12T02:10:39.300Z,1398.00
2023-05-12T02:11:39.284Z,1399.00
2023-05-12T02:12:39.352Z,1399.00
2023-05-12T02:13:39.246Z,1401.00
2023-05-12T02:14:39.228Z,1398.00
2023-05-12T02:15:39.214Z,1394.00
2023-05-12T02:16:39.229Z,1392.00
2023-05-12T02:17:39.173Z,1393.00
2023-05-12T02:18:39.284Z,1391.00
2023-05-12T02:19:39.136Z,1395.00
2023-05-12T02:20:39.106Z,1397.00
2023-05-12T02:21:39.091Z,1395.00
2023-05-12T02:22:39.086Z,1395.00
2023-05-12T02:23:39.045Z,1394.00
2023-05-12T02:24:39.014Z,1392.00
2023-05-12T02:25:39.584Z,1394.00
2023-05-12T02:26:39.049Z,1394.00
2023-05-12T02:27:38.963Z,1396.00
2023-05-12T02:28:39.083Z,1394.00
2023-05-12T02:29:38.934Z,1394.00
2023-05-12T02:30:38.904Z,1389.00
2023-05-12T02:31:38.941Z,1384.00
2023-05-12T02:32:38.903Z,1382.00
2023-05-12T02:33:38.845Z,1382.00
2023-05-12T02:34:38.832Z,1388.00
2023-05-12T02:35:38.803Z,1387.00
2023-05-12T02:36:38.782Z,1382.00
2023-05-12T02:37:39.589Z,1384.00
2023-05-12T02:38:38.742Z,1389.00
2023-05-12T02:39:38.716Z,1385.00
2023-05-12T02:40:38.696Z,1385.00
2023-05-12T02:41:38.686Z,1386.00
2023-05-12T02:42:38.729Z,1384.00
2023-05-12T02:43:38.644Z,1381.00
2023-05-12T02:44:38.628Z,1379.00
2023-05-12T02:45:38.629Z,1378.00
2023-05-12T02:46:38.605Z,1378.00
2023-05-12T02:47:38.610Z,1376.00
2023-05-12T02:48:38.544Z,1379.00
2023-05-12T02:49:38.510Z,1376.00
2023-05-12T02:50:38.504Z,1377.00
2023-05-12T02:51:38.551Z,1380.00
2023-05-12T02:52:38.497Z,1379.00
2023-05-12T02:53:38.446Z,1379.00
2023-05-12T02:54:38.430Z,1376.00
2023-05-12T02:55:38.400Z,1376.00
2023-05-12T02:56:39.092Z,1377.00
2023-05-12T02:57:38.371Z,1377.00
2023-05-12T02:58:38.379Z,1377.00
2023-05-12T02:59:38.344Z,1380.00
2023-05-12T03:00:38.320Z,1381.00
2023-05-12T03:01:38.388Z,1377.00
2023-05-12T03:02:38.391Z,1375.00
2023-05-12T03:03:38.501Z,1375.00
2023-05-12T03:04:38.356Z,1374.00
2023-05-12T03:05:38.228Z,1372.00
2023-05-12T03:06:38.216Z,1373.00
2023-05-12T03:07:38.250Z,1372.00
2023-05-12T03:08:38.181Z,1373.00
2023-05-12T03:09:38.151Z,1375.00
2023-05-12T03:10:38.127Z,1373.00
2023-05-12T03:11:38.118Z,1370.00
2023-05-12T03:12:38.091Z,1369.00
2023-05-12T03:13:38.075Z,1365.00
2023-05-12T03:14:38.054Z,1363.00
2023-05-12T03:15:38.034Z,1362.00
2023-05-12T03:16:38.051Z,1360.00
2023-05-12T03:17:38.073Z,1358.00
2023-05-12T03:18:37.988Z,1357.00
2023-05-12T03:19:37.960Z,1361.00
2023-05-12T03:20:37.954Z,1360.00
2023-05-12T03:21:37.967Z,1358.00
2023-05-12T03:22:37.987Z,1360.00
2023-05-12T03:23:37.989Z,1364.00
2023-05-12T03:24:38.052Z,1368.00
2023-05-12T03:25:38.000Z,1368.00
2023-05-12T03:26:38.007Z,1370.00
2023-05-12T03:27:37.999Z,1367.00
2023-05-12T03:28:38.013Z,1365.00
2023-05-12T03:29:38.031Z,1363.00
2023-05-12T03:30:38.034Z,1360.00
2023-05-12T03:31:38.058Z,1361.00
2023-05-12T03:32:38.068Z,1359.00
2023-05-12T03:33:38.117Z,1358.00
2023-05-12T03:34:38.086Z,1363.00
2023-05-12T03:35:38.068Z,1363.00
2023-05-12T03:36:38.076Z,1365.00
2023-05-12T03:37:38.115Z,1362.00
2023-05-12T03:38:38.105Z,1360.00
2023-05-12T03:39:38.112Z,1360.00
2023-05-12T03:40:38.123Z,1357.00
2023-05-12T03:41:38.142Z,1354.00
2023-05-12T03:42:38.147Z,1355.00
2023-05-12T03:43:38.172Z,1354.00
2023-05-12T03:44:38.189Z,1351.00
2023-05-12T03:45:38.195Z,1351.00
2023-05-12T03:46:38.341Z,1349.00
2023-05-12T03:47:38.269Z,1350.00
2023-05-12T03:48:38.211Z,1352.00
2023-05-12T03:49:38.211Z,1354.00
2023-05-12T03:50:38.616Z,1354.00
2023-05-12T03:51:38.246Z,1353.00
2023-05-12T03:52:38.265Z,1352.00
2023-05-12T03:53:38.259Z,1346.00
2023-05-12T03:54:39.114Z,1345.00
2023-05-12T03:55:38.279Z,1346.00
2023-05-12T03:56:38.291Z,1344.00
2023-05-12T03:57:38.305Z,1345.00
2023-05-12T03:58:38.317Z,1343.00
2023-05-12T03:59:38.391Z,1342.00
2023-05-12T04:00:38.969Z,1342.00
2023-05-12T04:01:38.381Z,1347.00
2023-05-12T04:02:38.532Z,1346.00
2023-05-12T04:03:38.475Z,1345.00
2023-05-12T04:04:38.408Z,1348.00
2023-05-12T04:05:38.436Z,1350.00
2023-05-12T04:06:38.450Z,1349.00
2023-05-12T04:07:38.474Z,1347.00
2023-05-12T04:08:41.695Z,1341.00
2023-05-12T04:09:38.461Z,1343.00
2023-05-12T04:10:38.449Z,1343.00
2023-05-12T04:11:38.449Z,1345.00
2023-05-12T04:12:38.476Z,1346.00
2023-05-12T04:13:38.415Z,1346.00
2023-05-12T04:14:42.915Z,1348.00
2023-05-12T04:15:39.378Z,1348.00
2023-05-12T04:16:38.379Z,1349.00
2023-05-12T04:17:38.414Z,1346.00
2023-05-12T04:18:38.380Z,1340.00
2023-05-12T04:19:38.293Z,1338.00
2023-05-12T04:20:38.271Z,1339.00
2023-05-12T04:21:38.269Z,1338.00
2023-05-12T04:22:38.237Z,1335.00
2023-05-12T04:23:38.225Z,1335.00
2023-05-12T04:24:38.213Z,1333.00
2023-05-12T04:25:38.185Z,1330.00
2023-05-12T04:26:38.172Z,1328.00
2023-05-12T04:27:38.162Z,1324.00
2023-05-12T04:28:38.140Z,1324.00
2023-05-12T04:29:38.130Z,1324.00
2023-05-12T04:30:38.122Z,1324.00
2023-05-12T04:31:38.256Z,1324.00
2023-05-12T04:32:38.114Z,1318.00
2023-05-12T04:33:38.148Z,1320.00
2023-05-12T04:34:38.103Z,1318.00
2023-05-12T04:35:38.129Z,1312.00
2023-05-12T04:36:38.167Z,1314.00
2023-05-12T04:37:38.236Z,1312.00
2023-05-12T04:38:38.184Z,1312.00
2023-05-12T04:39:38.207Z,1318.00
2023-05-12T04:40:38.222Z,1318.00
2023-05-12T04:41:38.240Z,1318.00
2023-05-12T04:42:38.317Z,1321.00
2023-05-12T04:44:38.261Z,1321.00
2023-05-12T04:45:38.244Z,1320.00
2023-05-12T04:46:38.314Z,1319.00
2023-05-12T04:47:38.242Z,1321.00
2023-05-12T04:48:38.203Z,1319.00
2023-05-12T04:49:38.181Z,1317.00
2023-05-12T04:50:38.184Z,1319.00
2023-05-12T04:51:38.225Z,1319.00
2023-05-12T04:52:38.165Z,1317.00
2023-05-12T04:53:38.177Z,1308.00
2023-05-12T04:54:38.152Z,1307.00
2023-05-12T04:55:38.185Z,1307.00
2023-05-12T04:56:38.136Z,1310.00
2023-05-12T04:57:38.132Z,1310.00
2023-05-12T04:58:38.129Z,1311.00
2023-05-12T04:59:39.297Z,1312.00
2023-05-12T05:00:38.104Z,1312.00
2023-05-12T05:01:38.145Z,1311.00
2023-05-12T05:02:38.164Z,1311.00
2023-05-12T05:03:38.152Z,1310.00
2023-05-12T05:04:38.068Z,1310.00
2023-05-12T05:05:38.653Z,1312.00
2023-05-12T05:06:38.012Z,1309.00
2023-05-12T05:07:38.007Z,1310.00
2023-05-12T05:08:38.066Z,1308.00
2023-05-12T05:09:38.015Z,1306.00
2023-05-12T05:10:38.040Z,1306.00
2023-05-12T05:11:37.951Z,1304.00
2023-05-12T05:12:37.936Z,1306.00
2023-05-12T05:13:37.921Z,1310.00
2023-05-12T05:14:37.908Z,1314.00
2023-05-12T05:15:37.921Z,1315.00
2023-05-12T05:16:37.889Z,1312.00
2023-05-12T05:17:37.918Z,1308.00
2023-05-12T05:18:37.941Z,1307.00
2023-05-12T05:19:50.866Z,1306.00
2023-05-12T05:20:40.874Z,1308.00
2023-05-12T05:21:38.729Z,1309.00
2023-05-12T05:22:37.804Z,1304.00
2023-05-12T05:23:37.818Z,1310.00
2023-05-12T05:24:37.773Z,1331.00
2023-05-12T05:25:37.744Z,1222.00
2023-05-12T05:26:37.731Z,1230.00
2023-05-12T05:27:37.729Z,1240.00
2023-05-12T05:28:37.696Z,1237.00
2023-05-12T05:29:37.686Z,1198.00
2023-05-12T05:30:37.726Z,1388.00
2023-05-12T05:31:37.774Z,1292.00
2023-05-12T05:32:37.793Z,1386.00
2023-05-12T05:33:37.623Z,1348.00
2023-05-12T05:34:37.602Z,1485.00
2023-05-12T05:35:37.565Z,1509.00
2023-05-12T05:36:37.525Z,1591.00
2023-05-12T05:37:37.511Z,1655.00
2023-05-12T05:38:37.481Z,1669.00
2023-05-12T05:39:37.458Z,1683.00
2023-05-12T05:40:51.641Z,1691.00
2023-05-12T05:41:38.437Z,1764.00
2023-05-12T05:42:37.444Z,1795.00
2023-05-12T05:43:37.357Z,1874.00
2023-05-12T05:44:37.321Z,1884.00
2023-05-12T05:45:37.294Z,1912.00
2023-05-12T05:46:37.311Z,1942.00
2023-05-12T05:47:37.274Z,1981.00
2023-05-12T05:48:37.206Z,2003.00
2023-05-12T05:49:37.173Z,2054.00
2023-05-12T05:50:37.142Z,2073.00
2023-05-12T05:51:37.135Z,2138.00
2023-05-12T05:52:37.101Z,2136.00
2023-05-12T05:53:37.120Z,2140.00
2023-05-12T05:54:37.078Z,2186.00
2023-05-12T05:55:37.021Z,2244.00
2023-05-12T05:56:37.014Z,2252.00
2023-05-12T05:57:36.953Z,2273.00
2023-05-12T05:58:36.928Z,2377.00
2023-05-12T05:59:36.900Z,2398.00
2023-05-12T06:00:36.877Z,2453.00
2023-05-12T06:01:36.908Z,2518.00
2023-05-12T06:02:36.905Z,2558.00
2023-05-12T06:03:36.928Z,2561.00
2023-05-12T06:04:36.756Z,2588.00
2023-05-12T06:05:36.723Z,2621.00
2023-05-12T06:06:36.691Z,2675.00
2023-05-12T06:07:36.675Z,2724.00
2023-05-12T06:08:36.669Z,2735.00
2023-05-12T06:09:36.601Z,2784.00
2023-05-12T06:10:36.585Z,2863.00
2023-05-12T06:11:36.556Z,2889.00
2023-05-12T06:12:36.589Z,2899.00
2023-05-12T06:13:37.096Z,2919.00
2023-05-12T06:14:36.586Z,2931.00
2023-05-12T06:15:36.611Z,3072.00
2023-05-12T06:16:36.680Z,3052.00
2023-05-12T06:17:36.598Z,3054.00
2023-05-12T06:18:36.602Z,3066.00
2023-05-12T06:19:36.534Z,3064.00
2023-05-12T06:20:36.556Z,3085.00
2023-05-12T06:21:36.534Z,3079.00
2023-05-12T06:22:36.541Z,2565.00
2023-05-12T06:23:36.538Z,2343.00
2023-05-12T06:24:36.489Z,2241.00
2023-05-12T06:25:36.489Z,2060.00
2023-05-12T06:26:36.530Z,2253.00
2023-05-12T06:27:36.431Z,2431.00
2023-05-12T06:28:36.423Z,2271.00
2023-05-12T06:29:36.407Z,2231.00
2023-05-12T06:30:36.386Z,2391.00
2023-05-12T06:31:36.381Z,2440.00
2023-05-12T06:32:36.366Z,2557.00
2023-05-12T06:33:36.324Z,2579.00
2023-05-12T06:34:36.291Z,2604.00
2023-05-12T06:35:36.277Z,2607.00
2023-05-12T06:36:36.258Z,2628.00
2023-05-12T06:37:36.291Z,2737.00
2023-05-12T06:38:36.203Z,2750.00
2023-05-12T06:39:36.152Z,2763.00
2023-05-12T06:40:36.133Z,2758.00
2023-05-12T06:41:36.108Z,2763.00
2023-05-12T06:42:36.200Z,2772.00
2023-05-12T06:43:36.059Z,2785.00
2023-05-12T06:44:36.045Z,2790.00
2023-05-12T06:45:36.024Z,2804.00
2023-05-12T06:46:36.064Z,2817.00
2023-05-12T06:47:36.046Z,2838.00
2023-05-12T06:48:35.950Z,2862.00
2023-05-12T06:49:35.930Z,2892.00
2023-05-12T06:50:35.908Z,2953.00
2023-05-12T06:51:35.868Z,2976.00
2023-05-12T06:52:35.858Z,2991.00
2023-05-12T06:53:35.865Z,3069.00
2023-05-12T06:54:35.861Z,3066.00
2023-05-12T06:55:35.894Z,3125.00
2023-05-12T06:56:35.891Z,3164.00
2023-05-12T06:57:36.019Z,3176.00
2023-05-12T06:58:35.961Z,3205.00
2023-05-12T06:59:35.970Z,3210.00
2023-05-12T07:00:35.987Z,3228.00
2023-05-12T07:01:36.061Z,3233.00
2023-05-12T07:02:36.078Z,3283.00
2023-05-12T07:03:36.102Z,3286.00
2023-05-12T07:04:36.136Z,3305.00
2023-05-12T07:05:36.180Z,3327.00
2023-05-12T07:06:36.133Z,3337.00
2023-05-12T07:07:36.222Z,3383.00
2023-05-12T07:08:36.189Z,3398.00
2023-05-12T07:09:36.206Z,3458.00
2023-05-12T07:10:36.227Z,3484.00
2023-05-12T07:11:36.273Z,3542.00
2023-05-12T07:12:36.293Z,3542.00
2023-05-12T07:13:36.313Z,3563.00
2023-05-12T07:14:36.344Z,3573.00
2023-05-12T07:15:36.369Z,3596.00
2023-05-12T07:16:36.414Z,3602.00
2023-05-12T07:17:36.580Z,3524.00
2023-05-12T07:18:36.453Z,3550.00
2023-05-12T07:19:37.382Z,3445.00
2023-05-12T07:20:36.348Z,3475.00
2023-05-12T07:21:36.310Z,3033.00
2023-05-12T07:22:38.453Z,2513.00
2023-05-12T07:23:36.461Z,2776.00
2023-05-12T07:24:36.485Z,2769.00
2023-05-12T07:25:36.539Z,2801.00
2023-05-12T07:26:37.185Z,2807.00
2023-05-12T07:27:37.192Z,2831.00
2023-05-12T07:28:36.603Z,2931.00
2023-05-12T07:29:36.620Z,2936.00
2023-05-12T07:30:37.192Z,2952.00
2023-05-12T07:31:36.701Z,2977.00
2023-05-12T07:32:36.775Z,3037.00
2023-05-12T07:33:37.201Z,3082.00
2023-05-12T07:34:36.688Z,3110.00
2023-05-12T07:35:36.725Z,3129.00
2023-05-12T07:36:36.719Z,3160.00
2023-05-12T07:37:36.721Z,3214.00
2023-05-12T07:38:36.738Z,3242.00
2023-05-12T07:39:36.734Z,3247.00
2023-05-12T07:40:36.741Z,3272.00
2023-05-12T07:41:36.773Z,3293.00
2023-05-12T07:42:36.816Z,3330.00
2023-05-12T07:43:36.746Z,3368.00
2023-05-12T07:44:36.836Z,3417.00
2023-05-12T07:45:36.762Z,3441.00
2023-05-12T07:46:36.787Z,3441.00
2023-05-12T07:47:36.757Z,3448.00
2023-05-12T07:48:36.738Z,3534.00
2023-05-12T07:49:36.743Z,3573.00
2023-05-12T07:50:36.730Z,3596.00
2023-05-12T07:51:36.791Z,3646.00
2023-05-12T07:52:36.690Z,3699.00
2023-05-12T07:53:36.671Z,3712.00
2023-05-12T07:54:36.642Z,3747.00
2023-05-12T07:55:36.639Z,3751.00
2023-05-12T07:56:36.620Z,3777.00
2023-05-12T07:57:36.584Z,3814.00
2023-05-12T07:58:36.581Z,3894.00
2023-05-12T07:59:36.573Z,3908.00
2023-05-12T08:00:37.197Z,3931.00
2023-05-12T08:01:36.510Z,3943.00
2023-05-12T08:02:36.702Z,3962.00
2023-05-12T08:03:36.651Z,3986.00
2023-05-12T08:04:36.491Z,4011.00
2023-05-12T08:05:36.447Z,4025.00
2023-05-12T08:06:36.367Z,4068.00
2023-05-12T08:07:36.408Z,4091.00
2023-05-12T08:08:36.307Z,4115.00
2023-05-12T08:09:36.280Z,4129.00
2023-05-12T08:10:36.256Z,4217.00
2023-05-12T08:11:36.230Z,4237.00
2023-05-12T08:12:36.190Z,4154.00
2023-05-12T08:13:36.239Z,3882.00
2023-05-12T08:14:36.117Z,3880.00
2023-05-12T08:15:36.072Z,3622.00
2023-05-12T08:16:36.090Z,3264.00
2023-05-12T08:17:36.032Z,3733.00
2023-05-12T08:18:36.108Z,3200.00
2023-05-12T08:19:35.955Z,2981.00
2023-05-12T08:20:35.959Z,2953.00
2023-05-12T08:21:35.965Z,3268.00
2023-05-12T08:22:35.942Z,3307.00
2023-05-12T08:23:35.951Z,3271.00
2023-05-12T08:24:35.936Z,3265.00
2023-05-12T08:25:36.012Z,3250.00
2023-05-12T08:26:35.952Z,3153.00
2023-05-12T08:27:35.959Z,3155.00
2023-05-12T08:28:36.632Z,3152.00
2023-05-12T08:29:35.978Z,3159.00
2023-05-12T08:30:36.046Z,3169.00
2023-05-12T08:31:36.044Z,3176.00
2023-05-12T08:32:36.029Z,3173.00
2023-05-12T08:33:36.052Z,3175.00
2023-05-12T08:34:36.099Z,3168.00
2023-05-12T08:35:36.106Z,3163.00
2023-05-12T08:36:36.189Z,3158.00
2023-05-12T08:37:36.150Z,3148.00
2023-05-12T08:38:36.184Z,3153.00
2023-05-12T08:39:36.202Z,3151.00
2023-05-12T08:40:36.209Z,3150.00
2023-05-12T08:41:36.204Z,3147.00
2023-05-12T08:42:36.222Z,3144.00
2023-05-12T08:43:36.222Z,3147.00
2023-05-12T08:44:36.310Z,3144.00
2023-05-12T08:45:36.348Z,3136.00
2023-05-12T08:46:36.310Z,3130.00
2023-05-12T08:47:36.321Z,3126.00
2023-05-12T08:48:36.285Z,3116.00
2023-05-12T08:49:36.362Z,3110.00
2023-05-12T08:50:36.273Z,3102.00
2023-05-12T08:51:36.235Z,3098.00
2023-05-12T08:52:36.214Z,3087.00
2023-05-12T08:53:36.199Z,3073.00
2023-05-12T08:54:48.630Z,3075.00
2023-05-12T08:55:37.145Z,3069.00
2023-05-12T08:57:36.951Z,3056.00
2023-05-12T08:58:41.495Z,3061.00
2023-05-12T08:59:36.982Z,3063.00
2023-05-12T09:00:36.022Z,3060.00
2023-05-12T09:01:36.923Z,3066.00
2023-05-12T09:02:51.332Z,3065.00
2023-05-12T09:03:36.886Z,3060.00
2023-05-12T09:04:35.883Z,3052.00
2023-05-12T09:05:35.776Z,3054.00
2023-05-12T09:06:35.759Z,3051.00
2023-05-12T09:07:35.699Z,3048.00
2023-05-12T09:08:35.690Z,3058.00
2023-05-12T09:09:35.637Z,3068.00
2023-05-12T09:10:35.964Z,3073.00
2023-05-12T09:11:35.531Z,3065.00
2023-05-12T09:12:35.505Z,3071.00
2023-05-12T09:13:35.486Z,3075.00
2023-05-12T09:14:35.411Z,3072.00
2023-05-12T09:15:35.449Z,3069.00
2023-05-12T09:16:35.563Z,3069.00
2023-05-12T09:17:35.294Z,3063.00
2023-05-12T09:18:35.306Z,3061.00
2023-05-12T09:19:35.209Z,3088.00
2023-05-12T09:20:35.191Z,3155.00
2023-05-12T09:21:35.163Z,3114.00
2023-05-12T09:22:35.120Z,3111.00
2023-05-12T09:23:35.099Z,2960.00
2023-05-12T09:24:35.067Z,2669.00
2023-05-12T09:25:35.038Z,2270.00
2023-05-12T09:26:35.024Z,2262.00
2023-05-12T09:27:35.000Z,2451.00
2023-05-12T09:28:34.963Z,2439.00
2023-05-12T09:29:39.851Z,2274.00
2023-05-12T09:30:35.887Z,2316.00
2023-05-12T09:31:34.870Z,2065.00
2023-05-12T09:32:34.994Z,2108.00
2023-05-12T09:33:34.771Z,2392.00
2023-05-12T09:34:34.767Z,2040.00
2023-05-12T09:35:34.747Z,1961.00
2023-05-12T09:36:34.629Z,1827.00
2023-05-12T09:37:34.582Z,1747.00
2023-05-12T09:38:34.623Z,1884.00
2023-05-12T09:39:34.518Z,1919.00
2023-05-12T09:40:34.493Z,2045.00
2023-05-12T09:41:34.449Z,1909.00
2023-05-12T09:42:34.387Z,1924.00
2023-05-12T09:43:34.371Z,1675.00
2023-05-12T09:44:34.317Z,1907.00
2023-05-12T09:45:34.339Z,1897.00
2023-05-12T09:46:34.302Z,1943.00
2023-05-12T09:47:34.223Z,1831.00
2023-05-12T09:48:34.159Z,1593.00
2023-05-12T09:49:34.746Z,1501.00
2023-05-12T09:50:44.314Z,1498.00
2023-05-12T09:51:35.030Z,1304.00
2023-05-12T09:52:34.047Z,1191.00
2023-05-12T09:53:34.260Z,1130.00
2023-05-12T09:54:33.983Z,996.00
2023-05-12T09:55:33.931Z,950.00
2023-05-12T09:56:33.869Z,1176.00
2023-05-12T09:57:33.830Z,892.00
2023-05-12T09:58:33.783Z,866.00
2023-05-12T09:59:33.776Z,854.00
2023-05-12T10:01:33.731Z,760.00
2023-05-12T10:02:33.821Z,751.00
2023-05-12T10:03:33.611Z,738.00
2023-05-12T10:04:33.616Z,734.00
2023-05-12T10:05:33.560Z,686.00
2023-05-12T10:06:33.582Z,690.00
2023-05-12T10:07:33.484Z,684.00
2023-05-12T10:08:33.456Z,679.00
2023-05-12T10:09:33.443Z,675.00
2023-05-12T10:10:33.616Z,667.00
2023-05-12T10:11:33.372Z,675.00
2023-05-12T10:12:33.323Z,676.00
2023-05-12T10:13:33.299Z,961.00
2023-05-12T10:14:33.267Z,1151.00
2023-05-12T10:15:33.219Z,1035.00
2023-05-12T10:16:33.239Z,1202.00
2023-05-12T10:17:33.221Z,1300.00
2023-05-12T10:18:33.098Z,1146.00
2023-05-12T10:19:33.059Z,935.00
2023-05-12T10:20:33.105Z,1058.00
2023-05-12T10:21:32.979Z,1190.00
2023-05-12T10:22:32.929Z,1218.00
2023-05-12T10:23:32.890Z,1292.00
2023-05-12T10:24:32.851Z,1339.00
2023-05-12T10:25:32.883Z,1371.00
2023-05-12T10:26:32.774Z,1420.00
2023-05-12T10:27:32.723Z,1448.00
2023-05-12T10:28:32.672Z,1488.00
2023-05-12T10:29:32.730Z,1559.00
2023-05-12T10:30:32.660Z,1573.00
2023-05-12T10:31:32.627Z,1612.00
2023-05-12T10:32:32.566Z,1648.00
2023-05-12T10:33:32.463Z,1675.00
2023-05-12T10:34:32.409Z,1695.00
2023-05-12T10:35:32.349Z,1750.00
2023-05-12T10:36:32.315Z,1800.00
2023-05-12T10:37:32.251Z,1817.00
2023-05-12T10:38:32.730Z,1844.00
2023-05-12T10:39:32.167Z,1924.00
2023-05-12T10:40:32.101Z,1931.00
2023-05-12T10:41:32.064Z,1962.00
2023-05-12T10:42:32.037Z,2098.00
2023-05-12T10:43:31.964Z,2057.00
2023-05-12T10:44:32.681Z,2071.00
2023-05-12T10:45:31.888Z,2118.00
2023-05-12T10:46:31.826Z,2228.00
2023-05-12T10:47:31.882Z,2198.00
2023-05-12T10:48:31.737Z,2229.00
2023-05-12T10:49:31.675Z,2293.00
2023-05-12T10:50:31.616Z,2318.00
2023-05-12T10:51:31.568Z,2320.00
2023-05-12T10:52:31.515Z,2327.00
2023-05-12T10:53:45.089Z,2347.00
2023-05-12T10:54:32.438Z,2414.00
2023-05-12T10:55:31.464Z,2414.00
2023-05-12T10:56:31.616Z,2462.00
2023-05-12T10:57:31.717Z,2510.00
2023-05-12T10:59:31.454Z,2566.00
2023-05-12T11:00:31.449Z,2459.00
2023-05-12T11:01:31.709Z,2395.00
2023-05-12T11:02:32.323Z,2542.00
2023-05-12T11:03:32.138Z,2574.00
2023-05-12T11:04:31.285Z,2567.00
2023-05-12T11:05:31.839Z,2557.00
2023-05-12T11:06:31.271Z,2549.00
2023-05-12T11:07:32.544Z,2543.00
2023-05-12T11:08:32.095Z,2540.00
2023-05-12T11:09:31.254Z,2533.00
2023-05-12T11:10:31.388Z,2528.00
2023-05-12T11:11:31.207Z,2519.00
2023-05-12T11:12:30.896Z,2508.00
2023-05-12T11:13:30.776Z,2507.00
2023-05-12T11:14:30.744Z,2504.00
2023-05-12T11:15:30.711Z,2502.00
2023-05-12T11:16:30.691Z,2500.00
2023-05-12T11:17:30.686Z,2490.00
2023-05-12T11:18:30.666Z,2482.00
2023-05-12T11:19:30.597Z,2473.00
2023-05-12T11:20:31.234Z,2470.00
2023-05-12T11:21:30.560Z,2457.00
2023-05-12T11:22:31.370Z,2449.00
2023-05-12T11:23:30.505Z,2433.00
2023-05-12T11:24:30.504Z,2427.00
2023-05-12T11:25:30.467Z,2416.00
2023-05-12T11:26:30.441Z,2410.00
2023-05-12T11:27:30.418Z,2411.00
2023-05-12T11:28:30.417Z,2418.00
2023-05-12T11:29:30.369Z,2422.00
2023-05-12T11:30:30.533Z,2424.00
2023-05-12T11:31:30.399Z,2425.00
2023-05-12T11:32:30.648Z,2412.00
2023-05-12T11:33:30.304Z,2409.00
2023-05-12T11:34:30.293Z,2396.00
2023-05-12T11:35:30.268Z,2388.00
2023-05-12T11:36:30.246Z,2383.00
2023-05-12T11:37:30.235Z,2387.00
2023-05-12T11:38:30.215Z,2389.00
2023-05-12T11:39:30.202Z,2387.00
2023-05-12T11:40:30.182Z,2389.00
2023-05-12T11:41:30.160Z,2399.00
2023-05-12T11:42:30.158Z,2399.00
2023-05-12T11:43:30.181Z,2408.00
2023-05-12T11:44:30.101Z,2408.00
2023-05-12T11:45:30.100Z,2403.00
2023-05-12T11:46:30.362Z,2401.00
2023-05-12T11:47:30.819Z,2386.00
2023-05-12T11:48:30.057Z,2378.00
2023-05-12T11:49:30.032Z,2376.00
2023-05-12T11:50:30.022Z,2384.00
2023-05-12T11:51:30.008Z,2394.00
2023-05-12T11:52:30.008Z,2386.00
2023-05-12T11:53:29.990Z,2378.00
2023-05-12T11:54:29.993Z,2375.00
2023-05-12T11:55:29.994Z,2373.00
2023-05-12T11:56:29.994Z,2363.00
2023-05-12T11:57:29.975Z,2358.00
2023-05-12T11:58:29.977Z,2346.00
2023-05-12T11:59:29.973Z,2354.00
2023-05-12T12:00:29.957Z,2357.00
2023-05-12T12:01:29.943Z,2355.00
2023-05-12T12:02:30.085Z,2345.00
2023-05-12T12:03:30.051Z,2334.00
2023-05-12T12:04:30.128Z,2329.00
2023-05-12T12:05:29.940Z,2321.00
2023-05-12T12:06:29.950Z,2325.00
2023-05-12T12:07:29.941Z,2335.00
2023-05-12T12:08:29.957Z,2332.00
2023-05-12T12:09:29.947Z,2326.00
2023-05-12T12:10:29.958Z,2323.00